sensor_id;sensor_type;location;lat;lon;timestamp;P1;durP1;ratioP1;P2;durP2;ratioP2
28926;SDS011;16038;47.692;9.400;2023-07-28T00:01:28;10.55;;;4.85;;
28926;SDS011;16038;47.692;9.400;2023-07-28T00:03:53;9.70;;;4.97;;
28926;SDS011;16038;47.692;9.400;2023-07-28T00:06:19;7.22;;;4.85;;
28926;SDS011;16038;47.692;9.400;2023-07-28T00:08:44;7.03;;;4.70;;
28926;SDS011;16038;47.692;9.400;2023-07-28T00:11:10;10.38;;;5.20;;
28926;SDS011;16038;47.692;9.400;2023-07-28T00:13:37;10.25;;;4.85;;
28926;SDS011;16038;47.692;9.400;2023-07-28T00:16:03;7.15;;;4.93;;
28926;SDS011;16038;47.692;9.400;2023-07-28T00:18:30;10.27;;;4.32;;
28926;SDS011;16038;47.692;9.400;2023-07-28T00:20:55;8.90;;;5.25;;
28926;SDS011;16038;47.692;9.400;2023-07-28T00:23:20;10.65;;;5.40;;
28926;SDS011;16038;47.692;9.400;2023-07-28T00:25:46;8.50;;;5.13;;
28926;SDS011;16038;47.692;9.400;2023-07-28T00:28:11;7.20;;;4.88;;
28926;SDS011;16038;47.692;9.400;2023-07-28T00:30:37;8.50;;;4.55;;
28926;SDS011;16038;47.692;9.400;2023-07-28T00:33:02;7.10;;;4.95;;
28926;SDS011;16038;47.692;9.400;2023-07-28T00:35:27;7.85;;;4.72;;
28926;SDS011;16038;47.692;9.400;2023-07-28T00:37:53;6.35;;;4.43;;
28926;SDS011;16038;47.692;9.400;2023-07-28T00:40:18;11.90;;;5.75;;
28926;SDS011;16038;47.692;9.400;2023-07-28T00:42:44;8.20;;;4.70;;
28926;SDS011;16038;47.692;9.400;2023-07-28T00:45:10;8.68;;;4.70;;
28926;SDS011;16038;47.692;9.400;2023-07-28T00:47:35;9.55;;;4.90;;
28926;SDS011;16038;47.692;9.400;2023-07-28T00:50:02;7.50;;;4.80;;
28926;SDS011;16038;47.692;9.400;2023-07-28T00:52:28;8.70;;;5.03;;
28926;SDS011;16038;47.692;9.400;2023-07-28T00:54:53;8.63;;;5.32;;
28926;SDS011;16038;47.692;9.400;2023-07-28T00:57:19;9.20;;;5.38;;
28926;SDS011;16038;47.692;9.400;2023-07-28T00:59:45;8.02;;;5.45;;
28926;SDS011;16038;47.692;9.400;2023-07-28T01:02:11;9.55;;;5.32;;
28926;SDS011;16038;47.692;9.400;2023-07-28T01:04:37;12.32;;;5.57;;
28926;SDS011;16038;47.692;9.400;2023-07-28T01:12:36;7.70;;;5.90;;
28926;SDS011;16038;47.692;9.400;2023-07-28T01:15:01;11.90;;;7.10;;
28926;SDS011;16038;47.692;9.400;2023-07-28T01:17:27;9.43;;;6.50;;
28926;SDS011;16038;47.692;9.400;2023-07-28T01:19:52;10.93;;;6.30;;
28926;SDS011;16038;47.692;9.400;2023-07-28T01:24:49;10.95;;;6.03;;
28926;SDS011;16038;47.692;9.400;2023-07-28T01:27:16;8.65;;;5.70;;
28926;SDS011;16038;47.692;9.400;2023-07-28T01:29:42;11.48;;;5.50;;
28926;SDS011;16038;47.692;9.400;2023-07-28T01:32:07;8.13;;;5.57;;
28926;SDS011;16038;47.692;9.400;2023-07-28T01:34:35;8.18;;;5.35;;
28926;SDS011;16038;47.692;9.400;2023-07-28T01:37:01;8.73;;;4.47;;
28926;SDS011;16038;47.692;9.400;2023-07-28T01:39:26;10.48;;;5.60;;
28926;SDS011;16038;47.692;9.400;2023-07-28T01:41:51;10.48;;;5.53;;
28926;SDS011;16038;47.692;9.400;2023-07-28T01:44:17;8.40;;;5.00;;
28926;SDS011;16038;47.692;9.400;2023-07-28T01:46:42;8.25;;;5.05;;
28926;SDS011;16038;47.692;9.400;2023-07-28T01:49:07;10.38;;;5.05;;
28926;SDS011;16038;47.692;9.400;2023-07-28T01:51:33;9.10;;;4.60;;
28926;SDS011;16038;47.692;9.400;2023-07-28T01:53:58;7.72;;;4.70;;
28926;SDS011;16038;47.692;9.400;2023-07-28T01:56:23;9.75;;;4.88;;
28926;SDS011;16038;47.692;9.400;2023-07-28T01:58:49;7.90;;;4.30;;
28926;SDS011;16038;47.692;9.400;2023-07-28T02:01:14;6.43;;;4.65;;
28926;SDS011;16038;47.692;9.400;2023-07-28T02:03:40;6.60;;;4.18;;
28926;SDS011;16038;47.692;9.400;2023-07-28T02:06:05;7.75;;;4.00;;
28926;SDS011;16038;47.692;9.400;2023-07-28T02:08:30;11.25;;;4.70;;
28926;SDS011;16038;47.692;9.400;2023-07-28T02:10:56;8.70;;;4.13;;
28926;SDS011;16038;47.692;9.400;2023-07-28T02:13:21;8.50;;;4.28;;
28926;SDS011;16038;47.692;9.400;2023-07-28T02:15:46;8.10;;;4.32;;
28926;SDS011;16038;47.692;9.400;2023-07-28T02:18:12;5.05;;;3.72;;
28926;SDS011;16038;47.692;9.400;2023-07-28T02:20:37;11.77;;;3.90;;
28926;SDS011;16038;47.692;9.400;2023-07-28T02:23:04;7.95;;;4.28;;
28926;SDS011;16038;47.692;9.400;2023-07-28T02:25:29;9.30;;;4.65;;
28926;SDS011;16038;47.692;9.400;2023-07-28T02:27:55;10.55;;;5.30;;
28926;SDS011;16038;47.692;9.400;2023-07-28T02:30:20;11.07;;;5.05;;
28926;SDS011;16038;47.692;9.400;2023-07-28T02:32:45;5.78;;;4.32;;
28926;SDS011;16038;47.692;9.400;2023-07-28T02:35:11;8.20;;;4.60;;
28926;SDS011;16038;47.692;9.400;2023-07-28T02:37:36;6.78;;;4.30;;
28926;SDS011;16038;47.692;9.400;2023-07-28T02:40:02;9.05;;;4.85;;
28926;SDS011;16038;47.692;9.400;2023-07-28T02:42:28;11.05;;;5.00;;
28926;SDS011;16038;47.692;9.400;2023-07-28T02:44:53;9.23;;;4.32;;
28926;SDS011;16038;47.692;9.400;2023-07-28T02:47:19;8.10;;;4.85;;
28926;SDS011;16038;47.692;9.400;2023-07-28T02:49:44;6.97;;;4.55;;
28926;SDS011;16038;47.692;9.400;2023-07-28T02:52:10;8.73;;;4.97;;
28926;SDS011;16038;47.692;9.400;2023-07-28T02:54:36;6.78;;;5.13;;
28926;SDS011;16038;47.692;9.400;2023-07-28T02:57:01;8.20;;;4.68;;
28926;SDS011;16038;47.692;9.400;2023-07-28T02:59:27;7.68;;;4.57;;
28926;SDS011;16038;47.692;9.400;2023-07-28T03:01:52;13.10;;;4.53;;
28926;SDS011;16038;47.692;9.400;2023-07-28T03:04:18;7.95;;;4.78;;
28926;SDS011;16038;47.692;9.400;2023-07-28T03:06:46;7.38;;;4.63;;
28926;SDS011;16038;47.692;9.400;2023-07-28T03:09:12;8.73;;;5.57;;
28926;SDS011;16038;47.692;9.400;2023-07-28T03:11:38;6.80;;;4.95;;
28926;SDS011;16038;47.692;9.400;2023-07-28T03:14:03;10.32;;;4.75;;
28926;SDS011;16038;47.692;9.400;2023-07-28T03:16:28;7.05;;;4.20;;
28926;SDS011;16038;47.692;9.400;2023-07-28T03:18:54;6.97;;;4.70;;
28926;SDS011;16038;47.692;9.400;2023-07-28T03:21:19;7.97;;;4.93;;
28926;SDS011;16038;47.692;9.400;2023-07-28T03:23:45;6.78;;;4.70;;
28926;SDS011;16038;47.692;9.400;2023-07-28T03:26:10;5.55;;;4.38;;
28926;SDS011;16038;47.692;9.400;2023-07-28T03:28:35;12.48;;;4.68;;
28926;SDS011;16038;47.692;9.400;2023-07-28T03:31:01;12.10;;;4.57;;
28926;SDS011;16038;47.692;9.400;2023-07-28T03:33:26;8.27;;;5.03;;
28926;SDS011;16038;47.692;9.400;2023-07-28T03:35:51;9.73;;;4.80;;
28926;SDS011;16038;47.692;9.400;2023-07-28T03:38:17;8.40;;;4.60;;
28926;SDS011;16038;47.692;9.400;2023-07-28T03:40:43;11.27;;;4.55;;
28926;SDS011;16038;47.692;9.400;2023-07-28T03:43:09;8.52;;;4.80;;
28926;SDS011;16038;47.692;9.400;2023-07-28T03:45:34;10.95;;;5.07;;
28926;SDS011;16038;47.692;9.400;2023-07-28T03:47:59;8.75;;;5.22;;
28926;SDS011;16038;47.692;9.400;2023-07-28T03:50:25;12.40;;;6.13;;
28926;SDS011;16038;47.692;9.400;2023-07-28T03:52:51;9.88;;;5.60;;
28926;SDS011;16038;47.692;9.400;2023-07-28T03:55:17;8.02;;;5.25;;
28926;SDS011;16038;47.692;9.400;2023-07-28T03:57:42;6.78;;;5.10;;
28926;SDS011;16038;47.692;9.400;2023-07-28T04:00:07;10.57;;;4.90;;
28926;SDS011;16038;47.692;9.400;2023-07-28T04:02:33;6.43;;;4.40;;
28926;SDS011;16038;47.692;9.400;2023-07-28T04:04:58;10.27;;;5.10;;
28926;SDS011;16038;47.692;9.400;2023-07-28T04:07:24;9.77;;;4.90;;
28926;SDS011;16038;47.692;9.400;2023-07-28T04:09:50;7.65;;;4.47;;
28926;SDS011;16038;47.692;9.400;2023-07-28T04:12:15;9.10;;;5.15;;
28926;SDS011;16038;47.692;9.400;2023-07-28T04:14:41;8.93;;;4.70;;
28926;SDS011;16038;47.692;9.400;2023-07-28T04:17:07;7.85;;;4.97;;
28926;SDS011;16038;47.692;9.400;2023-07-28T04:19:32;8.23;;;5.20;;
28926;SDS011;16038;47.692;9.400;2023-07-28T04:21:59;9.93;;;5.38;;
28926;SDS011;16038;47.692;9.400;2023-07-28T04:24:25;9.73;;;5.40;;
28926;SDS011;16038;47.692;9.400;2023-07-28T04:26:51;8.20;;;5.05;;
28926;SDS011;16038;47.692;9.400;2023-07-28T04:29:16;9.38;;;4.95;;
28926;SDS011;16038;47.692;9.400;2023-07-28T04:31:41;9.68;;;5.72;;
28926;SDS011;16038;47.692;9.400;2023-07-28T04:34:07;8.57;;;5.45;;
28926;SDS011;16038;47.692;9.400;2023-07-28T04:36:32;14.25;;;5.85;;
28926;SDS011;16038;47.692;9.400;2023-07-28T04:38:58;10.05;;;6.05;;
28926;SDS011;16038;47.692;9.400;2023-07-28T04:41:23;8.68;;;5.43;;
28926;SDS011;16038;47.692;9.400;2023-07-28T04:43:49;10.07;;;6.32;;
28926;SDS011;16038;47.692;9.400;2023-07-28T04:46:14;9.00;;;6.40;;
28926;SDS011;16038;47.692;9.400;2023-07-28T04:48:41;8.88;;;6.72;;
28926;SDS011;16038;47.692;9.400;2023-07-28T04:51:06;12.50;;;7.88;;
28926;SDS011;16038;47.692;9.400;2023-07-28T04:53:32;16.35;;;10.75;;
28926;SDS011;16038;47.692;9.400;2023-07-28T04:55:57;13.50;;;10.38;;
28926;SDS011;16038;47.692;9.400;2023-07-28T04:58:23;13.50;;;9.82;;
28926;SDS011;16038;47.692;9.400;2023-07-28T05:00:48;14.77;;;8.70;;
28926;SDS011;16038;47.692;9.400;2023-07-28T05:03:13;12.25;;;7.15;;
28926;SDS011;16038;47.692;9.400;2023-07-28T05:05:39;11.13;;;8.38;;
28926;SDS011;16038;47.692;9.400;2023-07-28T05:08:09;12.07;;;7.95;;
28926;SDS011;16038;47.692;9.400;2023-07-28T05:10:34;11.38;;;6.85;;
28926;SDS011;16038;47.692;9.400;2023-07-28T05:13:00;6.72;;;5.55;;
28926;SDS011;16038;47.692;9.400;2023-07-28T05:15:25;11.45;;;6.32;;
28926;SDS011;16038;47.692;9.400;2023-07-28T05:17:50;9.30;;;6.20;;
28926;SDS011;16038;47.692;9.400;2023-07-28T05:20:16;11.40;;;7.13;;
28926;SDS011;16038;47.692;9.400;2023-07-28T05:22:41;10.40;;;6.00;;
28926;SDS011;16038;47.692;9.400;2023-07-28T05:25:07;11.43;;;6.07;;
28926;SDS011;16038;47.692;9.400;2023-07-28T05:27:32;7.57;;;4.90;;
28926;SDS011;16038;47.692;9.400;2023-07-28T05:29:57;8.90;;;5.03;;
28926;SDS011;16038;47.692;9.400;2023-07-28T05:32:23;8.90;;;5.05;;
28926;SDS011;16038;47.692;9.400;2023-07-28T05:34:49;10.20;;;4.95;;
28926;SDS011;16038;47.692;9.400;2023-07-28T05:37:14;11.60;;;4.97;;
28926;SDS011;16038;47.692;9.400;2023-07-28T05:39:39;9.35;;;5.03;;
28926;SDS011;16038;47.692;9.400;2023-07-28T05:42:05;9.18;;;5.43;;
28926;SDS011;16038;47.692;9.400;2023-07-28T05:44:30;8.32;;;5.18;;
28926;SDS011;16038;47.692;9.400;2023-07-28T05:46:56;6.47;;;5.50;;
28926;SDS011;16038;47.692;9.400;2023-07-28T05:49:21;8.88;;;5.80;;
28926;SDS011;16038;47.692;9.400;2023-07-28T05:51:47;10.98;;;5.88;;
28926;SDS011;16038;47.692;9.400;2023-07-28T05:54:12;9.00;;;5.80;;
28926;SDS011;16038;47.692;9.400;2023-07-28T05:56:41;8.75;;;5.00;;
28926;SDS011;16038;47.692;9.400;2023-07-28T05:59:07;8.25;;;5.10;;
28926;SDS011;16038;47.692;9.400;2023-07-28T06:01:32;12.65;;;8.07;;
28926;SDS011;16038;47.692;9.400;2023-07-28T06:03:58;6.97;;;4.63;;
28926;SDS011;16038;47.692;9.400;2023-07-28T06:06:27;7.03;;;3.97;;
28926;SDS011;16038;47.692;9.400;2023-07-28T06:08:52;8.27;;;4.28;;
28926;SDS011;16038;47.692;9.400;2023-07-28T06:11:18;6.78;;;4.25;;
28926;SDS011;16038;47.692;9.400;2023-07-28T06:13:44;6.57;;;4.80;;
28926;SDS011;16038;47.692;9.400;2023-07-28T06:16:11;7.38;;;3.67;;
28926;SDS011;16038;47.692;9.400;2023-07-28T06:18:37;14.77;;;4.95;;
28926;SDS011;16038;47.692;9.400;2023-07-28T06:21:02;7.72;;;3.75;;
28926;SDS011;16038;47.692;9.400;2023-07-28T06:23:28;8.45;;;3.47;;
28926;SDS011;16038;47.692;9.400;2023-07-28T06:25:53;7.47;;;4.03;;
28926;SDS011;16038;47.692;9.400;2023-07-28T06:28:20;9.25;;;4.35;;
28926;SDS011;16038;47.692;9.400;2023-07-28T06:30:45;5.22;;;3.60;;
28926;SDS011;16038;47.692;9.400;2023-07-28T06:33:11;10.40;;;4.07;;
28926;SDS011;16038;47.692;9.400;2023-07-28T06:35:36;7.38;;;4.07;;
28926;SDS011;16038;47.692;9.400;2023-07-28T06:38:02;8.75;;;3.75;;
28926;SDS011;16038;47.692;9.400;2023-07-28T06:40:27;6.97;;;4.20;;
28926;SDS011;16038;47.692;9.400;2023-07-28T06:42:53;7.18;;;4.32;;
28926;SDS011;16038;47.692;9.400;2023-07-28T06:45:19;8.00;;;4.30;;
28926;SDS011;16038;47.692;9.400;2023-07-28T06:47:44;7.85;;;4.25;;
28926;SDS011;16038;47.692;9.400;2023-07-28T06:50:10;7.30;;;4.00;;
28926;SDS011;16038;47.692;9.400;2023-07-28T06:52:36;6.72;;;3.88;;
28926;SDS011;16038;47.692;9.400;2023-07-28T06:55:02;5.78;;;3.50;;
28926;SDS011;16038;47.692;9.400;2023-07-28T06:57:29;6.85;;;3.10;;
28926;SDS011;16038;47.692;9.400;2023-07-28T06:59:55;6.78;;;3.33;;
28926;SDS011;16038;47.692;9.400;2023-07-28T07:02:21;7.85;;;3.58;;
28926;SDS011;16038;47.692;9.400;2023-07-28T07:04:46;6.18;;;3.30;;
28926;SDS011;16038;47.692;9.400;2023-07-28T07:07:12;9.43;;;3.53;;
28926;SDS011;16038;47.692;9.400;2023-07-28T07:09:37;5.25;;;2.95;;
28926;SDS011;16038;47.692;9.400;2023-07-28T07:12:03;6.43;;;3.38;;
28926;SDS011;16038;47.692;9.400;2023-07-28T07:14:29;4.18;;;2.90;;
28926;SDS011;16038;47.692;9.400;2023-07-28T07:16:54;6.72;;;3.30;;
28926;SDS011;16038;47.692;9.400;2023-07-28T07:19:19;8.02;;;3.03;;
28926;SDS011;16038;47.692;9.400;2023-07-28T07:21:45;7.35;;;2.78;;
28926;SDS011;16038;47.692;9.400;2023-07-28T07:24:10;5.82;;;2.80;;
28926;SDS011;16038;47.692;9.400;2023-07-28T07:26:39;5.88;;;3.83;;
28926;SDS011;16038;47.692;9.400;2023-07-28T07:29:04;5.57;;;3.35;;
28926;SDS011;16038;47.692;9.400;2023-07-28T07:31:30;6.53;;;3.05;;
28926;SDS011;16038;47.692;9.400;2023-07-28T07:33:55;5.32;;;2.78;;
28926;SDS011;16038;47.692;9.400;2023-07-28T07:36:21;4.88;;;2.90;;
28926;SDS011;16038;47.692;9.400;2023-07-28T07:38:46;4.45;;;2.65;;
28926;SDS011;16038;47.692;9.400;2023-07-28T07:41:12;6.85;;;3.20;;
28926;SDS011;16038;47.692;9.400;2023-07-28T07:43:44;7.20;;;2.97;;
28926;SDS011;16038;47.692;9.400;2023-07-28T07:46:09;4.82;;;3.30;;
28926;SDS011;16038;47.692;9.400;2023-07-28T07:48:35;4.68;;;2.70;;
28926;SDS011;16038;47.692;9.400;2023-07-28T07:51:00;3.72;;;2.72;;
28926;SDS011;16038;47.692;9.400;2023-07-28T07:53:25;5.82;;;2.75;;
28926;SDS011;16038;47.692;9.400;2023-07-28T07:55:51;6.50;;;2.78;;
28926;SDS011;16038;47.692;9.400;2023-07-28T07:58:16;5.63;;;2.50;;
28926;SDS011;16038;47.692;9.400;2023-07-28T08:00:42;5.78;;;2.60;;
28926;SDS011;16038;47.692;9.400;2023-07-28T08:03:09;6.32;;;2.47;;
28926;SDS011;16038;47.692;9.400;2023-07-28T08:05:35;6.68;;;3.40;;
28926;SDS011;16038;47.692;9.400;2023-07-28T08:08:01;9.02;;;4.07;;
28926;SDS011;16038;47.692;9.400;2023-07-28T08:10:27;9.20;;;3.70;;
28926;SDS011;16038;47.692;9.400;2023-07-28T08:12:52;6.82;;;2.17;;
28926;SDS011;16038;47.692;9.400;2023-07-28T08:15:18;4.25;;;2.17;;
28926;SDS011;16038;47.692;9.400;2023-07-28T08:17:44;5.40;;;2.10;;
28926;SDS011;16038;47.692;9.400;2023-07-28T08:20:10;5.35;;;2.33;;
28926;SDS011;16038;47.692;9.400;2023-07-28T08:22:35;4.28;;;2.55;;
28926;SDS011;16038;47.692;9.400;2023-07-28T08:25:01;6.65;;;2.15;;
28926;SDS011;16038;47.692;9.400;2023-07-28T08:27:26;5.50;;;2.38;;
28926;SDS011;16038;47.692;9.400;2023-07-28T08:29:52;4.07;;;2.25;;
28926;SDS011;16038;47.692;9.400;2023-07-28T08:32:17;4.57;;;2.20;;
28926;SDS011;16038;47.692;9.400;2023-07-28T08:34:42;6.43;;;2.42;;
28926;SDS011;16038;47.692;9.400;2023-07-28T08:37:08;4.97;;;2.30;;
28926;SDS011;16038;47.692;9.400;2023-07-28T08:39:34;3.15;;;1.75;;
28926;SDS011;16038;47.692;9.400;2023-07-28T08:42:00;3.45;;;2.00;;
28926;SDS011;16038;47.692;9.400;2023-07-28T08:44:29;3.10;;;1.98;;
28926;SDS011;16038;47.692;9.400;2023-07-28T08:46:56;4.05;;;2.00;;
28926;SDS011;16038;47.692;9.400;2023-07-28T08:49:21;5.00;;;2.17;;
28926;SDS011;16038;47.692;9.400;2023-07-28T08:51:50;3.80;;;2.05;;
28926;SDS011;16038;47.692;9.400;2023-07-28T08:54:16;4.43;;;2.15;;
28926;SDS011;16038;47.692;9.400;2023-07-28T08:56:42;2.92;;;1.77;;
28926;SDS011;16038;47.692;9.400;2023-07-28T08:59:08;7.38;;;2.22;;
28926;SDS011;16038;47.692;9.400;2023-07-28T09:01:40;4.40;;;1.90;;
28926;SDS011;16038;47.692;9.400;2023-07-28T09:04:09;4.68;;;2.33;;
28926;SDS011;16038;47.692;9.400;2023-07-28T09:06:35;3.78;;;2.08;;
28926;SDS011;16038;47.692;9.400;2023-07-28T09:09:01;3.83;;;2.30;;
28926;SDS011;16038;47.692;9.400;2023-07-28T09:11:27;9.05;;;2.10;;
28926;SDS011;16038;47.692;9.400;2023-07-28T09:13:53;5.38;;;2.20;;
28926;SDS011;16038;47.692;9.400;2023-07-28T09:16:20;7.90;;;2.33;;
28926;SDS011;16038;47.692;9.400;2023-07-28T09:18:45;3.63;;;2.13;;
28926;SDS011;16038;47.692;9.400;2023-07-28T09:21:20;4.32;;;2.40;;
28926;SDS011;16038;47.692;9.400;2023-07-28T09:23:47;4.05;;;2.10;;
28926;SDS011;16038;47.692;9.400;2023-07-28T09:26:13;3.03;;;2.00;;
28926;SDS011;16038;47.692;9.400;2023-07-28T09:28:40;3.03;;;2.13;;
28926;SDS011;16038;47.692;9.400;2023-07-28T09:31:06;5.00;;;2.42;;
28926;SDS011;16038;47.692;9.400;2023-07-28T09:33:33;6.70;;;2.30;;
28926;SDS011;16038;47.692;9.400;2023-07-28T09:36:10;7.47;;;2.72;;
28926;SDS011;16038;47.692;9.400;2023-07-28T09:38:37;3.80;;;2.63;;
28926;SDS011;16038;47.692;9.400;2023-07-28T09:41:07;3.72;;;2.30;;
28926;SDS011;16038;47.692;9.400;2023-07-28T09:43:40;3.90;;;2.55;;
28926;SDS011;16038;47.692;9.400;2023-07-28T09:46:07;6.45;;;2.35;;
28926;SDS011;16038;47.692;9.400;2023-07-28T09:48:34;6.82;;;2.60;;
28926;SDS011;16038;47.692;9.400;2023-07-28T09:51:18;4.68;;;2.20;;
28926;SDS011;16038;47.692;9.400;2023-07-28T09:53:55;5.75;;;2.22;;
28926;SDS011;16038;47.692;9.400;2023-07-28T09:56:25;6.32;;;3.10;;
28926;SDS011;16038;47.692;9.400;2023-07-28T09:58:54;6.43;;;2.78;;
28926;SDS011;16038;47.692;9.400;2023-07-28T10:01:22;5.20;;;2.40;;
28926;SDS011;16038;47.692;9.400;2023-07-28T10:03:48;5.25;;;2.58;;
28926;SDS011;16038;47.692;9.400;2023-07-28T10:06:14;5.47;;;2.22;;
28926;SDS011;16038;47.692;9.400;2023-07-28T10:08:42;4.13;;;2.40;;
28926;SDS011;16038;47.692;9.400;2023-07-28T10:11:09;4.18;;;2.33;;
28926;SDS011;16038;47.692;9.400;2023-07-28T10:13:40;4.90;;;2.30;;
28926;SDS011;16038;47.692;9.400;2023-07-28T10:16:07;3.42;;;2.42;;
28926;SDS011;16038;47.692;9.400;2023-07-28T10:18:34;5.10;;;2.53;;
28926;SDS011;16038;47.692;9.400;2023-07-28T10:21:06;5.95;;;2.80;;
28926;SDS011;16038;47.692;9.400;2023-07-28T10:23:35;5.20;;;2.35;;
28926;SDS011;16038;47.692;9.400;2023-07-28T10:26:03;4.45;;;2.20;;
28926;SDS011;16038;47.692;9.400;2023-07-28T10:28:37;9.43;;;2.70;;
28926;SDS011;16038;47.692;9.400;2023-07-28T10:31:06;5.53;;;2.53;;
28926;SDS011;16038;47.692;9.400;2023-07-28T10:33:33;7.35;;;2.33;;
28926;SDS011;16038;47.692;9.400;2023-07-28T10:38:40;7.90;;;2.45;;
28926;SDS011;16038;47.692;9.400;2023-07-28T10:41:09;4.97;;;2.25;;
28926;SDS011;16038;47.692;9.400;2023-07-28T10:43:37;8.52;;;2.75;;
28926;SDS011;16038;47.692;9.400;2023-07-28T10:46:04;4.30;;;2.55;;
28926;SDS011;16038;47.692;9.400;2023-07-28T10:48:37;3.83;;;2.15;;
28926;SDS011;16038;47.692;9.400;2023-07-28T10:51:07;5.95;;;2.60;;
28926;SDS011;16038;47.692;9.400;2023-07-28T10:53:33;7.63;;;2.55;;
28926;SDS011;16038;47.692;9.400;2023-07-28T10:55:59;5.40;;;2.63;;
28926;SDS011;16038;47.692;9.400;2023-07-28T10:58:27;4.15;;;2.63;;
28926;SDS011;16038;47.692;9.400;2023-07-28T11:00:52;5.25;;;2.60;;
28926;SDS011;16038;47.692;9.400;2023-07-28T11:03:18;5.13;;;2.35;;
28926;SDS011;16038;47.692;9.400;2023-07-28T11:05:45;6.32;;;2.60;;
28926;SDS011;16038;47.692;9.400;2023-07-28T11:08:10;4.10;;;2.75;;
28926;SDS011;16038;47.692;9.400;2023-07-28T11:10:36;4.82;;;2.17;;
28926;SDS011;16038;47.692;9.400;2023-07-28T11:13:02;5.68;;;2.78;;
28926;SDS011;16038;47.692;9.400;2023-07-28T11:15:31;9.45;;;2.70;;
28926;SDS011;16038;47.692;9.400;2023-07-28T11:17:57;11.63;;;2.80;;
28926;SDS011;16038;47.692;9.400;2023-07-28T11:22:55;3.85;;;2.33;;
28926;SDS011;16038;47.692;9.400;2023-07-28T11:25:23;3.95;;;2.40;;
28926;SDS011;16038;47.692;9.400;2023-07-28T11:27:50;5.90;;;2.55;;
28926;SDS011;16038;47.692;9.400;2023-07-28T11:30:17;6.53;;;2.72;;
28926;SDS011;16038;47.692;9.400;2023-07-28T11:32:44;4.88;;;2.90;;
28926;SDS011;16038;47.692;9.400;2023-07-28T11:35:14;6.28;;;2.78;;
28926;SDS011;16038;47.692;9.400;2023-07-28T11:37:41;3.80;;;2.47;;
28926;SDS011;16038;47.692;9.400;2023-07-28T11:40:08;3.97;;;2.40;;
28926;SDS011;16038;47.692;9.400;2023-07-28T11:42:38;5.47;;;2.75;;
28926;SDS011;16038;47.692;9.400;2023-07-28T11:45:05;7.43;;;2.72;;
28926;SDS011;16038;47.692;9.400;2023-07-28T11:47:32;4.50;;;2.45;;
28926;SDS011;16038;47.692;9.400;2023-07-28T11:49:58;5.32;;;2.60;;
28926;SDS011;16038;47.692;9.400;2023-07-28T11:52:24;3.17;;;2.20;;
28926;SDS011;16038;47.692;9.400;2023-07-28T11:54:54;4.18;;;2.53;;
28926;SDS011;16038;47.692;9.400;2023-07-28T11:57:19;5.40;;;2.65;;
28926;SDS011;16038;47.692;9.400;2023-07-28T11:59:46;5.97;;;2.90;;
28926;SDS011;16038;47.692;9.400;2023-07-28T12:02:11;3.80;;;2.40;;
28926;SDS011;16038;47.692;9.400;2023-07-28T12:04:38;5.07;;;2.60;;
28926;SDS011;16038;47.692;9.400;2023-07-28T12:09:31;4.15;;;2.53;;
28926;SDS011;16038;47.692;9.400;2023-07-28T12:12:20;6.68;;;2.53;;
28926;SDS011;16038;47.692;9.400;2023-07-28T12:14:48;5.22;;;2.75;;
28926;SDS011;16038;47.692;9.400;2023-07-28T12:17:23;4.10;;;2.47;;
28926;SDS011;16038;47.692;9.400;2023-07-28T12:20:06;4.63;;;2.63;;
28926;SDS011;16038;47.692;9.400;2023-07-28T12:22:33;4.65;;;2.70;;
28926;SDS011;16038;47.692;9.400;2023-07-28T12:24:58;4.43;;;2.35;;
28926;SDS011;16038;47.692;9.400;2023-07-28T12:27:23;5.75;;;2.70;;
28926;SDS011;16038;47.692;9.400;2023-07-28T12:29:51;4.00;;;2.42;;
28926;SDS011;16038;47.692;9.400;2023-07-28T12:32:16;3.22;;;2.20;;
28926;SDS011;16038;47.692;9.400;2023-07-28T12:34:42;5.18;;;2.65;;
28926;SDS011;16038;47.692;9.400;2023-07-28T12:37:07;4.97;;;2.80;;
28926;SDS011;16038;47.692;9.400;2023-07-28T12:39:35;3.67;;;2.70;;
28926;SDS011;16038;47.692;9.400;2023-07-28T12:42:04;4.70;;;3.20;;
28926;SDS011;16038;47.692;9.400;2023-07-28T12:44:31;4.75;;;2.88;;
28926;SDS011;16038;47.692;9.400;2023-07-28T12:46:56;6.47;;;2.80;;
28926;SDS011;16038;47.692;9.400;2023-07-28T12:49:22;6.85;;;3.08;;
28926;SDS011;16038;47.692;9.400;2023-07-28T12:51:47;4.35;;;2.60;;
28926;SDS011;16038;47.692;9.400;2023-07-28T12:54:12;3.90;;;2.70;;
28926;SDS011;16038;47.692;9.400;2023-07-28T12:56:38;7.03;;;2.72;;
28926;SDS011;16038;47.692;9.400;2023-07-28T12:59:03;5.05;;;2.92;;
28926;SDS011;16038;47.692;9.400;2023-07-28T13:01:29;8.30;;;2.60;;
28926;SDS011;16038;47.692;9.400;2023-07-28T13:03:55;4.10;;;2.90;;
28926;SDS011;16038;47.692;9.400;2023-07-28T13:06:20;4.03;;;2.60;;
28926;SDS011;16038;47.692;9.400;2023-07-28T13:08:46;6.40;;;2.80;;
28926;SDS011;16038;47.692;9.400;2023-07-28T13:11:14;6.47;;;2.90;;
28926;SDS011;16038;47.692;9.400;2023-07-28T13:13:40;3.97;;;2.70;;
28926;SDS011;16038;47.692;9.400;2023-07-28T13:16:07;6.85;;;2.90;;
28926;SDS011;16038;47.692;9.400;2023-07-28T13:18:38;4.90;;;2.50;;
28926;SDS011;16038;47.692;9.400;2023-07-28T13:23:31;5.05;;;2.67;;
28926;SDS011;16038;47.692;9.400;2023-07-28T13:25:57;3.72;;;2.30;;
28926;SDS011;16038;47.692;9.400;2023-07-28T13:28:22;3.63;;;2.50;;
28926;SDS011;16038;47.692;9.400;2023-07-28T13:30:49;4.60;;;2.88;;
28926;SDS011;16038;47.692;9.400;2023-07-28T13:33:14;4.72;;;2.95;;
28926;SDS011;16038;47.692;9.400;2023-07-28T13:35:39;4.00;;;2.70;;
28926;SDS011;16038;47.692;9.400;2023-07-28T13:38:05;3.88;;;2.58;;
28926;SDS011;16038;47.692;9.400;2023-07-28T13:40:30;4.50;;;2.80;;
28926;SDS011;16038;47.692;9.400;2023-07-28T13:42:59;5.18;;;2.85;;
28926;SDS011;16038;47.692;9.400;2023-07-28T13:45:24;7.32;;;3.17;;
28926;SDS011;16038;47.692;9.400;2023-07-28T13:47:50;4.10;;;3.08;;
28926;SDS011;16038;47.692;9.400;2023-07-28T13:50:16;7.32;;;2.72;;
28926;SDS011;16038;47.692;9.400;2023-07-28T13:52:44;4.47;;;2.75;;
28926;SDS011;16038;47.692;9.400;2023-07-28T13:55:15;7.60;;;3.13;;
28926;SDS011;16038;47.692;9.400;2023-07-28T13:57:40;6.43;;;2.75;;
28926;SDS011;16038;47.692;9.400;2023-07-28T14:00:06;3.50;;;2.40;;
28926;SDS011;16038;47.692;9.400;2023-07-28T14:02:35;7.10;;;3.30;;
28926;SDS011;16038;47.692;9.400;2023-07-28T14:05:01;4.53;;;2.92;;
28926;SDS011;16038;47.692;9.400;2023-07-28T14:07:27;6.95;;;3.03;;
28926;SDS011;16038;47.692;9.400;2023-07-28T14:09:53;4.78;;;2.63;;
28926;SDS011;16038;47.692;9.400;2023-07-28T14:12:18;5.65;;;3.10;;
28926;SDS011;16038;47.692;9.400;2023-07-28T14:14:44;4.13;;;2.65;;
28926;SDS011;16038;47.692;9.400;2023-07-28T14:17:15;5.70;;;3.20;;
28926;SDS011;16038;47.692;9.400;2023-07-28T14:19:41;4.63;;;2.70;;
28926;SDS011;16038;47.692;9.400;2023-07-28T14:22:07;4.90;;;2.53;;
28926;SDS011;16038;47.692;9.400;2023-07-28T14:24:33;4.78;;;2.70;;
28926;SDS011;16038;47.692;9.400;2023-07-28T14:27:16;4.30;;;2.85;;
28926;SDS011;16038;47.692;9.400;2023-07-28T14:29:42;5.18;;;2.88;;
28926;SDS011;16038;47.692;9.400;2023-07-28T14:32:07;4.88;;;2.80;;
28926;SDS011;16038;47.692;9.400;2023-07-28T14:34:33;3.75;;;2.50;;
28926;SDS011;16038;47.692;9.400;2023-07-28T14:37:04;5.05;;;3.00;;
28926;SDS011;16038;47.692;9.400;2023-07-28T14:39:33;5.72;;;2.83;;
28926;SDS011;16038;47.692;9.400;2023-07-28T14:42:02;4.28;;;2.83;;
28926;SDS011;16038;47.692;9.400;2023-07-28T14:44:28;5.00;;;3.00;;
28926;SDS011;16038;47.692;9.400;2023-07-28T14:46:54;6.47;;;2.92;;
28926;SDS011;16038;47.692;9.400;2023-07-28T14:49:25;4.60;;;2.90;;
28926;SDS011;16038;47.692;9.400;2023-07-28T14:51:53;4.03;;;2.80;;
28926;SDS011;16038;47.692;9.400;2023-07-28T14:54:19;5.97;;;3.08;;
28926;SDS011;16038;47.692;9.400;2023-07-28T14:56:44;6.60;;;2.70;;
28926;SDS011;16038;47.692;9.400;2023-07-28T14:59:10;5.00;;;2.80;;